Time;durP1;ratioP1;P1;durP2;ratioP2;P2;SDS_P1;SDS_P2;PMS_P1;PMS_P2;Temp;Humidity;BMP_temperature;BMP_pressure;BME280_temperature;BME280_humidity;BME280_pressure;Samples;Min_cycle;Max_cycle;Signal;HPM_P1;HPM_P2
2023/06/20 00:00:51;;;;;;;2.90;2.55;;;27.50;58.50;;;;;;5051135;28;20128;-70
2023/06/20 00:03:17;;;;;;;5.20;3.05;;;27.50;58.60;;;;;;5052279;28;20044;-70
2023/06/20 00:05:44;;;;;;;5.38;3.50;;;27.50;58.60;;;;;;5052479;28;20032;-70
2023/06/20 00:08:10;;;;;;;3.03;2.60;;;27.50;58.60;;;;;;5052262;28;20091;-70
2023/06/20 00:10:36;;;;;;;3.83;3.13;;;27.50;58.60;;;;;;5053609;28;20048;-70
2023/06/20 00:13:03;;;;;;;4.18;3.78;;;27.50;58.70;;;;;;5053855;28;20135;-70
2023/06/20 00:15:29;;;;;;;3.97;3.20;;;27.50;58.70;;;;;;5053578;28;20025;-70
2023/06/20 00:17:59;;;;;;;3.55;3.22;;;27.50;58.70;;;;;;5053097;28;20033;-71
2023/06/20 00:20:27;;;;;;;4.30;3.50;;;27.50;58.70;;;;;;5052077;28;20059;-70
2023/06/20 00:22:54;;;;;;;6.07;3.40;;;27.50;58.70;;;;;;5053402;28;20037;-70
2023/06/20 00:25:20;;;;;;;3.97;3.60;;;27.50;58.80;;;;;;5050717;28;20086;-71
2023/06/20 00:27:46;;;;;;;5.55;3.30;;;27.40;58.80;;;;;;5051023;28;20049;-70
2023/06/20 00:30:13;;;;;;;3.65;3.30;;;27.40;58.80;;;;;;5050773;28;20048;-71
2023/06/20 00:32:39;;;;;;;6.25;3.35;;;27.50;58.80;;;;;;5030586;28;20465;-70
2023/06/20 00:35:05;;;;;;;5.28;3.88;;;27.50;58.80;;;;;;5030638;28;20050;-70
2023/06/20 00:37:34;;;;;;;5.78;3.40;;;27.50;58.80;;;;;;5030596;28;20045;-70
2023/06/20 00:40:00;;;;;;;4.15;3.60;;;27.50;58.80;;;;;;5030729;28;20034;-70
2023/06/20 00:42:26;;;;;;;4.68;3.92;;;27.50;58.80;;;;;;5030550;28;20056;-70
2023/06/20 00:44:52;;;;;;;5.78;3.80;;;27.30;58.80;;;;;;5030572;28;20417;-70
2023/06/20 00:47:19;;;;;;;6.82;3.47;;;27.50;58.80;;;;;;5010303;28;20079;-70
2023/06/20 00:49:48;;;;;;;5.35;3.38;;;27.40;58.80;;;;;;5010753;28;20046;-70
2023/06/20 00:52:16;;;;;;;5.65;3.90;;;27.40;58.80;;;;;;5010216;28;20042;-70
2023/06/20 00:54:44;;;;;;;4.95;3.97;;;27.40;58.90;;;;;;5010619;28;20073;-70
2023/06/20 00:57:13;;;;;;;4.82;3.55;;;27.20;58.80;;;;;;5010621;28;20053;-71
2023/06/20 00:59:43;;;;;;;4.68;3.20;;;27.40;58.80;;;;;;5013878;28;20125;-70
2023/06/20 01:02:10;;;;;;;6.70;3.63;;;27.30;58.90;;;;;;5029868;28;20080;-73
2023/06/20 01:04:39;;;;;;;4.22;3.20;;;27.20;59.00;;;;;;5033260;28;20049;-70
2023/06/20 01:07:15;;;;;;;6.55;3.35;;;27.30;59.00;;;;;;5033355;28;20084;-70
2023/06/20 01:10:35;;;;;;;4.40;3.55;;;27.30;59.00;;;;;;5033588;28;20043;-70
2023/06/20 01:13:11;;;;;;;6.70;3.78;;;27.30;59.10;;;;;;4955080;28;20903;-70
2023/06/20 01:15:59;;;;;;;6.45;3.25;;;27.30;59.10;;;;;;4955225;28;20089;-71
2023/06/20 01:19:06;;;;;;;3.88;3.35;;;27.30;59.10;;;;;;4955050;28;20038;-70
2023/06/20 01:21:37;;;;;;;5.13;4.00;;;27.30;59.10;;;;;;4971030;28;20050;-70
2023/06/20 01:24:14;;;;;;;11.27;3.20;;;27.50;59.20;;;;;;4971055;28;20046;-71
2023/06/20 01:26:45;;;;;;;4.95;3.20;;;27.30;59.20;;;;;;4954429;28;20129;-70
2023/06/20 01:29:21;;;;;;;3.83;3.03;;;27.50;59.20;;;;;;4954793;28;20049;-71
2023/06/20 01:31:55;;;;;;;6.00;3.53;;;27.30;59.20;;;;;;4954943;28;20098;-69
2023/06/20 01:34:27;;;;;;;6.15;3.50;;;27.40;59.10;;;;;;4954875;28;20419;-70
2023/06/20 01:36:57;;;;;;;4.40;3.50;;;27.30;59.10;;;;;;4970895;28;20042;-70
2023/06/20 01:39:32;;;;;;;4.75;3.30;;;27.40;59.10;;;;;;4954739;28;20035;-70
2023/06/20 01:42:02;;;;;;;4.53;3.10;;;27.20;59.10;;;;;;4954713;28;20125;-70
2023/06/20 01:44:30;;;;;;;5.90;3.22;;;27.30;59.10;;;;;;4970844;28;20058;-70
2023/06/20 01:46:58;;;;;;;5.70;3.67;;;27.30;59.10;;;;;;4973234;28;20497;-70
2023/06/20 01:49:26;;;;;;;4.32;3.30;;;27.40;59.10;;;;;;5009522;28;20056;-70
2023/06/20 01:51:55;;;;;;;6.95;3.45;;;27.40;59.10;;;;;;4993151;28;20081;-70
2023/06/20 01:54:29;;;;;;;4.97;3.20;;;27.30;59.10;;;;;;4992949;28;20046;-70
2023/06/20 01:57:00;;;;;;;5.07;3.90;;;27.30;59.10;;;;;;5009606;28;20038;-70
2023/06/20 01:59:27;;;;;;;5.55;3.53;;;27.20;59.10;;;;;;4993103;28;20049;-71
2023/06/20 02:01:56;;;;;;;4.85;3.63;;;27.20;59.20;;;;;;4992894;28;20041;-70
2023/06/20 02:04:24;;;;;;;6.93;3.70;;;27.20;59.30;;;;;;5009288;28;20046;-70
2023/06/20 02:06:50;;;;;;;5.53;3.58;;;27.20;59.30;;;;;;5009323;28;20119;-70
2023/06/20 02:09:17;;;;;;;3.67;3.38;;;27.20;59.40;;;;;;5009653;28;20076;-70
2023/06/20 02:11:47;;;;;;;5.57;3.45;;;27.20;59.40;;;;;;5009152;28;20041;-70
2023/06/20 02:14:14;;;;;;;3.60;2.88;;;27.20;59.40;;;;;;5028729;28;20053;-71
2023/06/20 02:16:42;;;;;;;3.65;3.10;;;27.20;59.40;;;;;;5008317;28;20054;-70
2023/06/20 02:19:09;;;;;;;6.22;3.25;;;27.20;59.40;;;;;;5009053;28;20046;-70
2023/06/20 02:21:38;;;;;;;3.42;3.10;;;27.40;59.40;;;;;;5028508;28;20053;-70
2023/06/20 02:24:06;;;;;;;4.22;3.17;;;27.20;59.40;;;;;;5012339;28;20065;-70
2023/06/20 02:26:35;;;;;;;4.70;3.28;;;27.20;59.40;;;;;;5012030;28;20061;-70
2023/06/20 02:29:06;;;;;;;3.60;3.13;;;27.30;59.40;;;;;;5028807;28;20140;-70
2023/06/20 02:31:36;;;;;;;4.30;3.15;;;27.20;59.40;;;;;;5011893;28;20081;-70
2023/06/20 02:34:06;;;;;;;4.18;3.22;;;27.30;59.30;;;;;;5012299;28;20512;-70
2023/06/20 02:36:35;;;;;;;4.40;3.30;;;27.20;59.30;;;;;;5012047;28;20055;-70
2023/06/20 02:39:04;;;;;;;7.07;3.35;;;27.20;59.30;;;;;;5012258;28;20703;-71
2023/06/20 02:41:30;;;;;;;5.88;3.55;;;27.30;59.30;;;;;;5011840;28;20063;-71
2023/06/20 02:43:56;;;;;;;6.03;3.35;;;27.20;59.30;;;;;;5028722;28;20049;-70
2023/06/20 02:46:45;;;;;;;4.57;3.50;;;27.20;59.30;;;;;;5012197;28;20222;-70
2023/06/20 02:49:21;;;;;;;3.78;3.28;;;27.20;59.30;;;;;;5049759;28;20040;-70
2023/06/20 02:52:28;;;;;;;5.50;3.17;;;27.10;59.30;;;;;;5049556;28;20036;-70
2023/06/20 02:55:36;;;;;;;4.28;3.00;;;27.10;59.30;;;;;;4992757;28;20049;-70
2023/06/20 02:58:13;;;;;;;3.90;2.97;;;27.10;59.30;;;;;;4992194;28;20490;-70
2023/06/20 03:00:44;;;;;;;3.55;2.92;;;27.10;59.50;;;;;;4992425;28;20397;-70
2023/06/20 03:03:18;;;;;;;6.07;3.25;;;27.10;59.50;;;;;;4992239;28;20049;-70
2023/06/20 03:05:45;;;;;;;3.63;3.30;;;27.20;59.50;;;;;;4992632;28;20072;-70
2023/06/20 03:08:17;;;;;;;4.03;3.60;;;27.10;59.60;;;;;;5008719;28;20501;-69
2023/06/20 03:10:45;;;;;;;4.78;3.70;;;27.10;59.60;;;;;;4992326;28;20145;-70
2023/06/20 03:13:15;;;;;;;3.45;3.15;;;27.20;59.60;;;;;;4976067;28;20073;-70
2023/06/20 03:15:42;;;;;;;3.40;3.03;;;27.20;59.60;;;;;;4992198;28;20042;-70
2023/06/20 03:18:08;;;;;;;3.80;3.33;;;27.30;59.60;;;;;;4976183;28;20052;-70
2023/06/20 03:20:34;;;;;;;5.93;3.78;;;27.20;59.60;;;;;;5008119;28;20117;-70
2023/06/20 03:23:01;;;;;;;5.07;2.92;;;27.10;59.60;;;;;;4991899;28;20046;-70
2023/06/20 03:25:29;;;;;;;3.65;3.17;;;27.20;59.60;;;;;;4992137;28;20034;-70
2023/06/20 03:27:55;;;;;;;4.38;3.10;;;27.20;59.60;;;;;;5008366;28;20096;-71
2023/06/20 03:30:21;;;;;;;3.75;3.45;;;27.10;59.60;;;;;;5007066;28;20453;-72
2023/06/20 03:32:50;;;;;;;6.93;3.42;;;27.10;59.60;;;;;;5052985;28;20068;-70
2023/06/20 03:35:16;;;;;;;6.00;3.33;;;27.10;59.50;;;;;;5053128;28;20334;-70
2023/06/20 03:37:43;;;;;;;6.22;3.58;;;27.20;59.50;;;;;;5052748;28;20094;-70
2023/06/20 03:40:10;;;;;;;5.70;3.67;;;27.10;59.50;;;;;;5053271;28;20044;-70
2023/06/20 03:42:38;;;;;;;4.13;3.72;;;27.10;59.50;;;;;;5036489;28;20477;-70
2023/06/20 03:45:05;;;;;;;5.38;3.65;;;27.10;59.50;;;;;;5053006;28;20040;-71
2023/06/20 03:47:33;;;;;;;2.45;2.25;;;27.10;59.50;;;;;;5052745;28;20040;-72
2023/06/20 03:49:59;;;;;;;2.22;2.05;;;27.00;59.40;;;;;;5054201;28;20040;-71
2023/06/20 03:52:25;;;;;;;2.47;2.28;;;27.10;58.40;;;;;;5053785;28;20536;-71
2023/06/20 03:54:51;;;;;;;3.67;3.00;;;27.20;58.70;;;;;;5052754;28;20043;-71
2023/06/20 03:57:17;;;;;;;3.53;2.88;;;27.00;58.20;;;;;;5052462;28;20068;-71
2023/06/20 03:59:43;;;;;;;6.20;3.30;;;27.00;57.60;;;;;;5052507;28;20064;-71
2023/06/20 04:02:09;;;;;;;4.88;3.78;;;27.00;57.20;;;;;;5053812;28;20035;-72
2023/06/20 04:04:37;;;;;;;7.03;3.70;;;27.00;56.40;;;;;;5052187;28;20115;-72
2023/06/20 04:07:03;;;;;;;4.85;3.53;;;26.90;55.60;;;;;;5035710;28;20072;-71
2023/06/20 04:09:29;;;;;;;5.63;3.75;;;27.00;56.30;;;;;;5035942;28;20033;-71
2023/06/20 04:11:55;;;;;;;4.10;3.22;;;27.00;56.40;;;;;;5053648;28;20458;-71
2023/06/20 04:14:21;;;;;;;4.40;3.17;;;27.00;56.60;;;;;;5053611;28;20056;-71
2023/06/20 04:16:49;;;;;;;4.55;3.35;;;27.10;59.40;;;;;;5052158;28;20477;-72
2023/06/20 04:19:18;;;;;;;7.75;2.95;;;27.60;60.40;;;;;;5053379;28;20044;-72
2023/06/20 04:21:45;;;;;;;5.45;3.58;;;28.10;60.80;;;;;;5052079;28;20059;-71
2023/06/20 04:24:11;;;;;;;4.53;3.83;;;28.00;61.00;;;;;;5051930;28;20041;-72
2023/06/20 04:26:37;;;;;;;4.53;3.80;;;27.90;58.30;;;;;;5051398;28;20037;-72
2023/06/20 04:29:03;;;;;;;8.27;4.03;;;27.80;56.90;;;;;;5053228;28;20427;-71
2023/06/20 04:31:33;;;;;;;4.60;3.53;;;27.70;56.80;;;;;;5051884;28;20028;-70
2023/06/20 04:33:59;;;;;;;5.30;4.25;;;27.50;57.10;;;;;;5051723;28;20024;-72
2023/06/20 04:36:28;;;;;;;4.05;3.65;;;27.60;57.50;;;;;;5030568;28;20049;-72
2023/06/20 04:38:57;;;;;;;5.78;3.50;;;27.40;57.70;;;;;;5014113;28;20064;-71
2023/06/20 04:41:23;;;;;;;5.15;4.03;;;27.30;57.80;;;;;;5013104;28;20049;-71
2023/06/20 04:43:49;;;;;;;3.58;3.22;;;27.40;57.80;;;;;;4997872;28;20128;-72
2023/06/20 04:46:17;;;;;;;5.85;3.60;;;27.40;57.70;;;;;;5013741;28;20042;-71
2023/06/20 04:48:45;;;;;;;3.80;3.35;;;27.40;57.70;;;;;;5030686;28;20402;-72
2023/06/20 04:51:13;;;;;;;4.18;3.38;;;27.50;57.70;;;;;;5013843;28;20037;-72
2023/06/20 04:53:40;;;;;;;3.35;3.05;;;27.40;57.60;;;;;;5013894;28;20037;-71
2023/06/20 04:56:06;;;;;;;3.47;2.60;;;27.40;57.60;;;;;;5013782;28;20430;-72
2023/06/20 04:58:32;;;;;;;5.60;3.60;;;27.40;57.70;;;;;;5030273;28;20037;-72
2023/06/20 05:01:00;;;;;;;5.68;2.97;;;27.20;57.20;;;;;;5030290;28;20026;-72
2023/06/20 05:03:27;;;;;;;6.97;3.25;;;27.30;55.30;;;;;;5013699;28;20060;-72
2023/06/20 05:05:53;;;;;;;3.50;3.20;;;27.20;55.70;;;;;;5030258;28;20493;-72
2023/06/20 05:08:19;;;;;;;3.85;2.88;;;27.10;53.90;;;;;;5045854;28;20468;-71
2023/06/20 05:10:46;;;;;;;4.78;3.55;;;27.20;54.50;;;;;;5051387;28;20327;-70
2023/06/20 05:13:12;;;;;;;3.90;2.67;;;27.10;55.80;;;;;;5034463;28;20043;-70
2023/06/20 05:15:38;;;;;;;7.35;3.38;;;27.10;55.90;;;;;;5052286;28;20029;-71
2023/06/20 05:18:04;;;;;;;3.60;3.30;;;27.10;56.20;;;;;;5052144;28;20064;-70
2023/06/20 05:20:30;;;;;;;4.68;3.28;;;27.00;55.60;;;;;;5034024;28;20098;-71
2023/06/20 05:22:56;;;;;;;5.45;4.35;;;27.30;56.40;;;;;;5051929;28;20065;-71
2023/06/20 05:25:22;;;;;;;3.97;3.47;;;27.10;56.80;;;;;;5052058;28;20033;-70
2023/06/20 05:27:49;;;;;;;3.97;3.42;;;27.20;56.50;;;;;;5051882;28;20049;-71
2023/06/20 05:30:15;;;;;;;8.23;3.90;;;27.00;57.20;;;;;;5049744;28;20396;-70
2023/06/20 05:32:41;;;;;;;4.05;3.42;;;27.10;58.20;;;;;;5051848;28;20021;-71
2023/06/20 05:35:07;;;;;;;4.90;3.97;;;27.10;57.20;;;;;;5051841;28;20374;-70
2023/06/20 05:37:34;;;;;;;4.78;3.92;;;27.10;57.30;;;;;;5051838;28;20508;-70
2023/06/20 05:40:00;;;;;;;7.38;3.97;;;27.00;57.10;;;;;;5050656;28;20080;-68
2023/06/20 05:42:26;;;;;;;5.25;3.08;;;27.10;57.00;;;;;;5051713;28;20469;-70
2023/06/20 05:44:52;;;;;;;6.38;3.72;;;27.10;56.90;;;;;;5051804;28;20032;-72
2023/06/20 05:47:18;;;;;;;4.63;3.40;;;27.30;57.80;;;;;;5051705;28;20036;-71
2023/06/20 05:49:45;;;;;;;7.32;3.65;;;27.10;59.00;;;;;;5050387;28;20469;-71
2023/06/20 05:52:11;;;;;;;5.07;2.90;;;27.10;59.00;;;;;;5050649;28;20362;-69
2023/06/20 05:54:37;;;;;;;3.30;2.92;;;27.20;58.80;;;;;;5051578;28;20025;-71
2023/06/20 05:57:05;;;;;;;4.70;3.13;;;27.20;59.10;;;;;;5050370;28;20473;-70
2023/06/20 05:59:31;;;;;;;5.88;3.60;;;27.30;59.10;;;;;;5029251;28;20123;-71
2023/06/20 06:01:57;;;;;;;5.07;2.58;;;27.40;59.00;;;;;;5012643;28;20493;-74
2023/06/20 06:04:25;;;;;;;3.70;3.33;;;27.40;59.00;;;;;;5028906;28;20079;-69
2023/06/20 06:06:52;;;;;;;5.88;2.80;;;27.30;56.80;;;;;;5028913;28;20419;-68
2023/06/20 06:09:18;;;;;;;3.28;2.97;;;27.20;56.70;;;;;;5028834;28;20045;-67
2023/06/20 06:11:45;;;;;;;2.83;2.58;;;27.20;56.20;;;;;;5028875;28;20417;-69
2023/06/20 06:14:12;;;;;;;4.32;3.25;;;27.30;56.40;;;;;;5012358;28;20038;-69
2023/06/20 06:16:38;;;;;;;4.55;2.67;;;27.20;56.70;;;;;;5028877;28;20047;-68
2023/06/20 06:19:04;;;;;;;4.15;2.72;;;27.30;57.20;;;;;;5028915;28;20041;-70
2023/06/20 06:21:30;;;;;;;6.40;3.53;;;27.20;58.10;;;;;;5002133;28;20045;-69
2023/06/20 06:23:56;;;;;;;3.90;2.75;;;27.30;57.80;;;;;;5028414;28;20056;-68
2023/06/20 06:26:22;;;;;;;6.43;3.25;;;27.10;58.10;;;;;;5045169;28;20041;-69
2023/06/20 06:28:49;;;;;;;6.20;2.55;;;27.20;58.40;;;;;;5028694;28;20034;-69
2023/06/20 06:31:24;;;;;;;5.35;3.20;;;27.40;58.20;;;;;;5008327;28;20576;-68
2023/06/20 06:33:51;;;;;;;3.83;3.10;;;27.20;58.00;;;;;;4981023;28;20080;-69
2023/06/20 06:36:18;;;;;;;4.07;3.00;;;27.30;57.40;;;;;;5010162;28;20576;-70
2023/06/20 06:38:49;;;;;;;6.03;3.80;;;27.10;57.20;;;;;;5012040;28;20489;-70
2023/06/20 06:41:18;;;;;;;4.20;3.15;;;27.40;57.00;;;;;;5011667;28;20144;-69
2023/06/20 06:43:45;;;;;;;2.92;2.63;;;27.20;57.00;;;;;;5011974;28;20084;-69
2023/06/20 06:46:11;;;;;;;3.08;2.78;;;27.30;56.90;;;;;;5012093;28;20559;-68
2023/06/20 06:48:37;;;;;;;4.88;3.33;;;27.30;56.80;;;;;;5028413;28;20449;-68
2023/06/20 06:51:03;;;;;;;5.10;2.92;;;27.30;56.40;;;;;;4993223;28;20093;-69
2023/06/20 06:53:29;;;;;;;5.47;3.00;;;27.30;56.70;;;;;;5011731;28;20080;-69
2023/06/20 06:55:55;;;;;;;4.38;3.15;;;27.40;56.70;;;;;;5028259;28;20241;-69
2023/06/20 06:58:21;;;;;;;3.10;2.80;;;27.40;56.80;;;;;;5011976;28;20048;-71
2023/06/20 07:00:47;;;;;;;7.32;3.53;;;27.40;57.00;;;;;;5011959;28;20116;-69
2023/06/20 07:03:15;;;;;;;5.00;2.80;;;27.40;56.80;;;;;;5031331;28;20139;-71
2023/06/20 07:05:41;;;;;;;4.10;2.97;;;27.30;56.50;;;;;;5035238;28;20029;-70
2023/06/20 07:08:07;;;;;;;3.22;2.92;;;27.30;56.00;;;;;;5052147;28;20507;-70
2023/06/20 07:10:33;;;;;;;4.18;3.35;;;27.30;54.50;;;;;;5053621;28;20040;-70
2023/06/20 07:13:00;;;;;;;3.78;3.33;;;27.30;55.40;;;;;;5053130;28;20548;-70
2023/06/20 07:15:33;;;;;;;3.38;3.00;;;27.30;55.10;;;;;;5037722;28;20048;-71
2023/06/20 07:17:59;;;;;;;3.17;2.88;;;27.20;55.60;;;;;;5053468;28;20108;-70
2023/06/20 07:20:24;;;;;;;3.40;3.10;;;27.20;55.40;;;;;;5054443;28;20119;-70
2023/06/20 07:22:50;;;;;;;5.72;3.22;;;27.10;55.80;;;;;;5054427;28;20389;-70
2023/06/20 07:25:19;;;;;;;4.82;3.35;;;27.20;55.90;;;;;;5053280;28;21613;-70
2023/06/20 07:27:45;;;;;;;3.50;2.95;;;27.00;56.20;;;;;;5053167;28;20041;-70
2023/06/20 07:30:11;;;;;;;4.45;3.30;;;27.30;56.50;;;;;;5054287;28;20091;-71
2023/06/20 07:32:40;;;;;;;3.92;3.50;;;27.30;56.80;;;;;;5054083;28;20033;-70
2023/06/20 07:35:09;;;;;;;3.42;3.13;;;27.20;56.70;;;;;;5052621;28;20029;-71
2023/06/20 07:37:35;;;;;;;7.00;4.10;;;27.20;56.70;;;;;;5054130;28;20417;-68
2023/06/20 07:40:01;;;;;;;3.53;3.05;;;27.20;56.60;;;;;;5054127;28;20087;-68
2023/06/20 07:42:28;;;;;;;4.00;3.58;;;27.20;56.80;;;;;;5074303;28;20036;-70
2023/06/20 07:44:54;;;;;;;6.63;3.67;;;27.30;56.80;;;;;;5072548;28;20403;-69
2023/06/20 07:47:21;;;;;;;5.25;3.38;;;27.20;56.80;;;;;;5073991;28;20377;-69
2023/06/20 07:49:47;;;;;;;3.15;2.88;;;27.20;56.80;;;;;;5073643;28;20050;-68
2023/06/20 07:52:13;;;;;;;4.35;3.53;;;27.20;56.80;;;;;;5073723;28;20468;-69
2023/06/20 07:54:39;;;;;;;5.03;3.60;;;27.40;56.80;;;;;;5073667;28;20039;-70
2023/06/20 07:57:05;;;;;;;7.75;3.55;;;27.20;56.70;;;;;;5073957;28;20028;-69
2023/06/20 07:59:32;;;;;;;3.63;3.33;;;27.20;56.70;;;;;;5073699;28;20063;-70
2023/06/20 08:01:58;;;;;;;5.30;3.72;;;27.30;56.70;;;;;;5073529;28;20036;-69
2023/06/20 08:04:24;;;;;;;4.32;3.65;;;27.10;56.50;;;;;;5054533;28;20040;-69
2023/06/20 08:06:50;;;;;;;4.82;3.40;;;27.20;56.40;;;;;;5073536;28;20381;-71
2023/06/20 08:09:16;;;;;;;4.15;3.65;;;27.30;56.20;;;;;;5073751;28;20028;-69
2023/06/20 08:11:45;;;;;;;11.75;4.35;;;27.30;56.10;;;;;;5073194;28;20104;-69
2023/06/20 08:14:12;;;;;;;5.10;3.83;;;27.30;56.10;;;;;;5055044;28;20071;-69
2023/06/20 08:16:38;;;;;;;4.30;3.90;;;27.30;55.90;;;;;;5072559;28;20093;-69
2023/06/20 08:19:04;;;;;;;4.95;4.45;;;27.30;56.20;;;;;;5056346;28;20043;-69
2023/06/20 08:21:30;;;;;;;5.18;4.65;;;27.20;56.20;;;;;;5053177;28;20120;-67
2023/06/20 08:23:56;;;;;;;5.43;4.32;;;27.20;56.40;;;;;;5053062;28;20121;-69
2023/06/20 08:26:22;;;;;;;5.55;4.35;;;27.20;56.60;;;;;;5051965;28;20100;-68
2023/06/20 08:28:48;;;;;;;8.68;4.90;;;27.00;56.60;;;;;;5053006;28;20059;-67
2023/06/20 08:31:15;;;;;;;8.23;4.75;;;26.90;55.90;;;;;;5053025;28;20064;-68
2023/06/20 08:33:41;;;;;;;7.57;4.53;;;27.00;56.30;;;;;;5052809;28;20114;-68
2023/06/20 08:36:10;;;;;;;5.18;3.95;;;27.00;56.50;;;;;;5053106;28;20083;-68
2023/06/20 08:38:36;;;;;;;6.05;4.60;;;27.10;56.70;;;;;;5052809;28;20051;-66
2023/06/20 08:41:04;;;;;;;3.95;3.55;;;27.00;56.60;;;;;;5060229;28;20030;-70
2023/06/20 08:43:30;;;;;;;5.53;4.50;;;27.00;56.60;;;;;;5073051;28;20169;-70
2023/06/20 08:45:56;;;;;;;6.57;4.45;;;27.00;56.70;;;;;;5073296;28;20036;-71
2023/06/20 08:48:23;;;;;;;6.05;4.88;;;27.00;56.70;;;;;;5072761;28;20040;-71
2023/06/20 08:50:51;;;;;;;5.13;4.10;;;27.00;56.70;;;;;;5072527;28;20035;-71
2023/06/20 08:53:18;;;;;;;4.88;3.97;;;27.10;56.70;;;;;;5071356;28;20519;-70
2023/06/20 08:55:45;;;;;;;6.60;4.45;;;27.10;56.80;;;;;;5072388;28;20047;-69
2023/06/20 08:58:11;;;;;;;5.97;4.18;;;27.10;57.00;;;;;;5071431;28;20048;-70
2023/06/20 09:00:40;;;;;;;5.07;4.25;;;27.10;57.00;;;;;;5072638;28;20028;-70
2023/06/20 09:03:06;;;;;;;6.55;4.75;;;27.00;57.00;;;;;;5071346;28;20466;-69
2023/06/20 09:05:39;;;;;;;5.60;4.40;;;27.00;57.00;;;;;;5072149;28;20032;-70
2023/06/20 09:08:06;;;;;;;5.00;4.50;;;27.00;57.10;;;;;;5070942;28;20114;-71
2023/06/20 09:10:36;;;;;;;7.75;4.38;;;27.00;57.10;;;;;;5071660;28;20373;-71
2023/06/20 09:13:04;;;;;;;5.90;3.83;;;27.00;57.00;;;;;;5072288;28;20032;-70
2023/06/20 09:15:30;;;;;;;4.78;4.00;;;27.20;57.00;;;;;;5070969;28;20075;-69
2023/06/20 09:18:00;;;;;;;4.45;4.05;;;27.00;57.00;;;;;;5048552;28;20060;-69
2023/06/20 09:20:31;;;;;;;5.28;3.92;;;27.10;57.10;;;;;;5051952;28;20083;-69
2023/06/20 09:22:58;;;;;;;5.32;3.40;;;27.10;57.10;;;;;;5050373;28;20064;-69
2023/06/20 09:25:26;;;;;;;5.15;4.57;;;26.90;56.50;;;;;;5051683;28;20039;-69
2023/06/20 09:27:53;;;;;;;5.15;4.53;;;27.00;57.10;;;;;;5049341;28;20108;-73
2023/06/20 09:30:20;;;;;;;8.20;3.60;;;27.10;57.00;;;;;;5051890;28;20037;-69
2023/06/20 09:44:51;;;;;;;7.57;5.63;;;27.20;60.50;;;;;;5128603;27;20379;-67
2023/06/20 09:47:17;;;;;;;7.57;5.30;;;28.10;59.30;;;;;;5129292;27;20039;-67
2023/06/20 09:49:44;;;;;;;7.93;5.18;;;28.10;57.30;;;;;;5128952;27;20449;-67
2023/06/20 09:56:42;;;;;;;5.85;5.05;;;27.90;56.60;;;;;;5128945;27;20110;-67
2023/06/20 09:59:10;;;;;;;8.70;4.88;;;27.80;56.80;;;;;;5143566;27;20043;-65
2023/06/20 10:01:39;;;;;;;6.32;4.88;;;27.80;57.00;;;;;;5129089;27;20024;-65
2023/06/20 10:04:06;;;;;;;8.57;4.63;;;27.60;56.90;;;;;;5128758;27;20084;-67
2023/06/20 10:06:37;;;;;;;5.95;4.70;;;27.50;57.10;;;;;;5128714;27;20421;-66
2023/06/20 10:09:07;;;;;;;4.85;3.67;;;27.70;57.30;;;;;;5128335;27;20159;-65
2023/06/20 10:11:37;;;;;;;10.15;4.75;;;27.50;57.60;;;;;;5128931;27;20119;-65
2023/06/20 10:14:04;;;;;;;4.88;4.38;;;27.40;57.60;;;;;;5128559;27;20041;-65
2023/06/20 10:16:31;;;;;;;7.50;4.25;;;27.50;57.70;;;;;;5128635;27;20080;-65
2023/06/20 10:18:57;;;;;;;6.00;4.57;;;27.40;57.80;;;;;;5128387;27;20403;-64
2023/06/20 10:22:01;;;;;;;5.65;4.80;;;27.40;58.60;;;;;;5128452;27;20363;-66
2023/06/20 10:24:30;;;;;;;18.60;4.72;;;27.30;59.20;;;;;;5128549;27;20039;-67
2023/06/20 10:27:00;;;;;;;7.97;4.88;;;27.30;59.20;;;;;;5126253;28;20108;-66
2023/06/20 10:29:27;;;;;;;9.40;4.20;;;27.30;59.20;;;;;;5128246;27;20046;-65
2023/06/20 10:32:06;;;;;;;8.20;4.70;;;27.20;58.90;;;;;;5128294;27;20035;-66
2023/06/20 10:34:41;;;;;;;5.75;4.38;;;27.30;58.80;;;;;;5128356;27;20351;-65
2023/06/20 10:37:26;;;;;;;4.60;4.03;;;27.30;58.70;;;;;;5128454;27;20027;-68
2023/06/20 10:39:56;;;;;;;10.95;5.22;;;27.30;58.90;;;;;;5126714;28;20051;-66
2023/06/20 10:42:39;;;;;;;52.95;8.88;;;27.40;61.30;;;;;;5128017;27;20070;-67
2023/06/20 10:45:31;;;;;;;5.88;3.20;;;27.80;64.40;;;;;;5118522;27;20042;-66
2023/06/20 10:47:57;;;;;;;6.72;2.70;;;28.20;67.30;;;;;;5111889;28;20039;-65
2023/06/20 10:50:24;;;;;;;5.35;4.82;;;28.20;64.70;;;;;;5111743;28;20047;-67
2023/06/20 10:52:50;;;;;;;5.30;4.70;;;27.90;63.70;;;;;;5111863;28;20050;-66
2023/06/20 10:55:24;;;;;;;4.95;4.45;;;28.00;65.90;;;;;;5077485;28;20044;-67
2023/06/20 10:57:51;;;;;;;5.85;5.15;;;27.80;62.00;;;;;;5094738;28;20067;-66
2023/06/20 11:00:19;;;;;;;6.05;4.97;;;28.10;62.50;;;;;;5111520;28;20055;-65
2023/06/20 11:02:47;;;;;;;9.50;5.28;;;28.20;65.70;;;;;;5111710;28;20111;-65
2023/06/20 11:05:13;;;;;;;9.05;4.68;;;28.40;65.50;;;;;;5111198;28;20103;-66
2023/06/20 11:08:01;;;;;;;7.45;5.18;;;28.30;61.40;;;;;;5111424;28;20487;-67
2023/06/20 11:10:35;;;;;;;7.05;4.68;;;28.30;60.30;;;;;;5111278;28;20043;-66
2023/06/20 11:13:04;;;;;;;7.47;5.22;;;28.30;59.50;;;;;;5111412;28;20039;-66
2023/06/20 11:15:33;;;;;;;7.07;5.03;;;28.20;59.10;;;;;;5111042;28;20040;-67
2023/06/20 11:18:06;;;;;;;7.03;5.07;;;28.20;58.80;;;;;;5111099;28;20526;-66
2023/06/20 11:20:39;;;;;;;5.95;4.38;;;28.10;58.50;;;;;;5111034;28;20058;-66
2023/06/20 11:23:13;;;;;;;7.47;4.90;;;28.20;58.50;;;;;;5111320;28;20028;-67
2023/06/20 11:25:41;;;;;;;4.95;4.45;;;28.10;58.30;;;;;;5112994;28;20046;-67
2023/06/20 11:28:11;;;;;;;5.82;4.13;;;28.20;58.10;;;;;;5128611;27;20048;-67
2023/06/20 11:30:39;;;;;;;6.63;4.65;;;28.20;58.20;;;;;;5113219;28;20096;-68
2023/06/20 11:33:07;;;;;;;4.45;4.05;;;28.30;58.10;;;;;;5110587;28;20450;-67
2023/06/20 11:35:46;;;;;;;5.72;4.18;;;28.10;58.10;;;;;;5113643;28;20122;-67
2023/06/20 11:38:15;;;;;;;5.30;4.35;;;28.10;58.00;;;;;;5113456;28;20531;-67
2023/06/20 11:40:43;;;;;;;4.70;3.90;;;28.10;57.90;;;;;;5128259;27;20035;-67
2023/06/20 11:43:23;;;;;;;4.93;4.07;;;28.10;57.80;;;;;;5113358;28;20051;-67
2023/06/20 11:45:49;;;;;;;4.43;4.03;;;28.10;57.80;;;;;;5127670;27;20032;-67
2023/06/20 11:48:16;;;;;;;4.45;4.05;;;28.10;59.20;;;;;;5098811;28;20042;-68
2023/06/20 11:50:44;;;;;;;6.88;4.22;;;28.20;58.80;;;;;;5091236;28;20032;-68
2023/06/20 11:53:21;;;;;;;4.22;3.55;;;28.20;58.30;;;;;;5092744;28;20039;-68
2023/06/20 11:55:52;;;;;;;4.30;3.85;;;28.20;58.20;;;;;;5091732;28;20097;-68
2023/06/20 11:58:20;;;;;;;4.15;3.67;;;28.10;58.10;;;;;;5092753;28;20044;-68
2023/06/20 12:00:57;;;;;;;6.63;3.50;;;28.20;58.10;;;;;;5091241;28;20501;-68
2023/06/20 12:03:23;;;;;;;3.45;3.15;;;28.20;58.10;;;;;;5092642;28;20524;-67
2023/06/20 12:05:49;;;;;;;4.30;3.90;;;28.20;58.10;;;;;;5092376;28;20044;-68
2023/06/20 12:08:15;;;;;;;4.13;3.83;;;28.10;58.20;;;;;;5092689;28;20086;-68
2023/06/20 12:10:57;;;;;;;4.32;3.83;;;28.10;58.20;;;;;;5092393;28;20070;-68
2023/06/20 12:13:23;;;;;;;8.70;4.10;;;28.10;58.20;;;;;;5091225;28;20097;-68
2023/06/20 12:15:49;;;;;;;5.78;4.03;;;28.10;58.20;;;;;;5092209;28;20499;-68
2023/06/20 12:18:15;;;;;;;4.35;3.95;;;28.20;58.40;;;;;;5092408;28;20043;-67
2023/06/20 12:20:41;;;;;;;5.03;3.92;;;28.10;58.30;;;;;;5092099;28;20032;-68
2023/06/20 12:23:07;;;;;;;5.93;3.78;;;28.10;58.40;;;;;;5092200;28;20584;-69
2023/06/20 12:25:33;;;;;;;6.28;3.72;;;28.10;58.40;;;;;;5092152;28;20062;-67
2023/06/20 12:27:59;;;;;;;4.03;3.63;;;28.10;58.30;;;;;;5091959;28;20064;-67
2023/06/20 12:30:25;;;;;;;4.13;3.78;;;28.00;58.30;;;;;;5091899;28;20032;-66
2023/06/20 12:32:51;;;;;;;4.07;3.70;;;28.00;58.20;;;;;;5091686;28;20036;-67
2023/06/20 12:35:17;;;;;;;4.57;3.80;;;27.90;57.70;;;;;;5091792;28;20028;-67
2023/06/20 12:37:43;;;;;;;3.47;3.17;;;27.90;57.90;;;;;;5091850;28;20039;-68
2023/06/20 12:40:13;;;;;;;4.05;3.63;;;28.00;58.60;;;;;;5091968;28;20491;-69
2023/06/20 12:42:39;;;;;;;6.15;4.05;;;28.00;58.50;;;;;;5106341;28;20040;-67
2023/06/20 12:45:06;;;;;;;5.40;3.67;;;27.90;58.10;;;;;;5112116;28;20551;-68
2023/06/20 12:47:32;;;;;;;4.22;3.78;;;27.80;58.90;;;;;;5112031;28;20050;-68
2023/06/20 12:50:01;;;;;;;6.53;3.63;;;27.90;58.60;;;;;;5094056;28;20031;-67
2023/06/20 12:52:27;;;;;;;4.32;3.88;;;27.90;58.60;;;;;;5112053;28;20050;-67
2023/06/20 12:54:54;;;;;;;4.00;3.67;;;27.90;58.50;;;;;;5111929;28;20475;-68
2023/06/20 12:57:20;;;;;;;6.35;3.65;;;27.80;58.40;;;;;;5111973;28;20382;-67
2023/06/20 12:59:46;;;;;;;4.60;3.70;;;27.90;58.40;;;;;;5111737;28;20036;-69
2023/06/20 13:02:12;;;;;;;5.32;3.72;;;27.80;58.40;;;;;;5112014;28;20071;-69
2023/06/20 13:04:38;;;;;;;5.82;4.15;;;28.00;58.90;;;;;;5112061;28;20027;-69
2023/06/20 13:07:05;;;;;;;4.05;3.50;;;27.80;58.40;;;;;;5111704;28;20035;-69
2023/06/20 13:09:31;;;;;;;5.78;3.35;;;27.90;58.30;;;;;;5111871;28;20122;-65